createdAt,value
2022-11-02T05:01:15.765Z,87.60
2022-11-02T05:05:28.427Z,87.32
2022-11-02T05:09:43.576Z,87.44
2022-11-02T05:13:57.425Z,88.19
2022-11-02T05:18:11.629Z,87.72
2022-11-02T05:22:25.637Z,87.01
2022-11-02T05:26:37.865Z,87.75
2022-11-02T05:30:50.544Z,87.33
2022-11-02T05:35:02.757Z,87.98
2022-11-02T05:39:15.366Z,87.25
2022-11-02T05:43:27.253Z,87.21
2022-11-02T05:47:39.434Z,87.64
2022-11-02T05:51:50.974Z,87.65
2022-11-02T05:56:04.573Z,87.23
2022-11-02T06:00:16.348Z,87.94
2022-11-02T06:04:27.882Z,87.97
2022-11-02T06:08:39.795Z,88.20
2022-11-02T06:12:59.033Z,88.27
2022-11-02T06:17:10.540Z,88.58
2022-11-02T06:21:22.053Z,88.72
2022-11-02T06:25:33.589Z,88.63
2022-11-02T06:29:45.112Z,88.72
2022-11-02T06:33:56.619Z,88.74
2022-11-02T06:38:08.111Z,89.51
2022-11-02T06:42:19.609Z,89.52
2022-11-02T06:46:31.151Z,89.29
2022-11-02T06:50:42.740Z,89.62
2022-11-02T06:54:54.474Z,89.65
2022-11-02T06:59:06.126Z,89.46
2022-11-02T07:03:18.500Z,89.44
2022-11-02T07:07:30.062Z,89.17
2022-11-02T07:11:41.633Z,89.35
2022-11-02T07:15:54.346Z,89.49
2022-11-02T07:20:06.577Z,89.29
2022-11-02T07:24:18.090Z,89.67
2022-11-02T07:28:29.601Z,89.29
2022-11-02T07:32:42.245Z,88.28
2022-11-02T07:36:55.618Z,88.33
2022-11-02T07:41:07.136Z,88.28
2022-11-02T07:45:18.632Z,88.38
2022-11-02T07:49:30.180Z,87.74
2022-11-02T07:53:41.804Z,86.70
2022-11-02T07:57:55.301Z,86.02
2022-11-02T08:02:09.390Z,85.88
2022-11-02T08:06:20.924Z,86.05
2022-11-02T08:10:37.511Z,86.05
2022-11-02T08:14:51.574Z,85.47
2022-11-02T08:19:03.127Z,85.70
2022-11-02T08:23:16.848Z,85.70
2022-11-02T08:27:28.334Z,86.16
2022-11-02T08:31:39.957Z,85.04
2022-11-02T08:35:52.176Z,85.28
2022-11-02T08:40:03.938Z,85.51
2022-11-02T08:44:15.484Z,83.31
2022-11-02T08:48:27.570Z,81.77
2022-11-02T08:52:40.694Z,80.57
2022-11-02T08:56:52.522Z,81.22
2022-11-02T09:01:04.272Z,80.95
2022-11-02T09:05:16.148Z,79.99
2022-11-02T09:09:28.118Z,81.04
2022-11-02T09:13:39.889Z,81.15
2022-11-02T09:17:51.537Z,80.55
2022-11-02T09:22:05.785Z,79.03
2022-11-02T09:26:17.581Z,77.88
2022-11-02T09:30:29.797Z,77.80
2022-11-02T09:34:41.498Z,78.29
2022-11-02T09:38:53.358Z,77.66
2022-11-02T09:43:22.795Z,77.05
2022-11-02T09:48:16.140Z,76.82
2022-11-02T09:52:41.338Z,75.90
2022-11-02T09:56:59.775Z,74.90
2022-11-02T10:01:41.407Z,73.83
2022-11-02T10:06:04.027Z,71.82
2022-11-02T10:10:23.004Z,70.92
2022-11-02T10:14:39.375Z,69.31
2022-11-02T10:18:58.160Z,68.51
2022-11-02T10:23:33.172Z,66.72
2022-11-02T10:27:52.329Z,66.42
2022-11-02T10:32:09.022Z,64.49
2022-11-02T10:37:09.935Z,64.12
2022-11-02T10:41:34.205Z,65.50
2022-11-02T10:46:10.982Z,64.73
2022-11-02T10:50:41.338Z,65.56
2022-11-02T10:54:53.324Z,67.50
2022-11-02T10:59:20.417Z,67.01
2022-11-02T11:03:32.092Z,67.86
2022-11-02T11:07:44.772Z,67.88
2022-11-02T11:12:05.801Z,68.57
2022-11-02T11:16:40.075Z,68.00
2022-11-02T11:20:55.986Z,68.41
2022-11-02T11:25:10.545Z,69.19
2022-11-02T11:29:22.937Z,69.31
2022-11-02T11:33:48.396Z,69.72
2022-11-02T11:38:21.548Z,69.84
2022-11-02T11:42:37.370Z,68.93
2022-11-02T11:46:58.955Z,67.90
2022-11-02T11:51:35.275Z,66.58
2022-11-02T11:55:58.567Z,66.52
2022-11-02T12:00:30.412Z,66.71
2022-11-02T12:04:41.966Z,66.60
2022-11-02T12:09:14.249Z,67.13
2022-11-02T12:13:55.553Z,66.14
2022-11-02T12:18:28.572Z,65.37
2022-11-02T12:23:14.728Z,62.51
2022-11-02T12:28:09.144Z,61.53
2022-11-02T12:32:52.978Z,59.39
2022-11-02T12:37:45.230Z,57.38
2022-11-02T12:42:11.731Z,56.89
2022-11-02T12:46:47.719Z,56.33
2022-11-02T12:51:12.368Z,56.61
2022-11-02T12:55:38.157Z,55.17
2022-11-02T12:59:54.790Z,54.58
2022-11-02T13:04:12.310Z,55.15
2022-11-02T13:08:44.146Z,54.16
2022-11-02T13:12:59.763Z,54.17
2022-11-02T13:17:20.578Z,56.56
2022-11-02T13:21:44.081Z,55.24
2022-11-02T13:26:02.353Z,54.17
2022-11-02T13:30:16.019Z,53.32
2022-11-02T13:34:36.391Z,53.39
2022-11-02T13:39:00.624Z,54.36
2022-11-02T13:43:39.508Z,54.12
2022-11-02T13:48:04.225Z,52.98
2022-11-02T13:52:34.822Z,53.89
2022-11-02T13:56:51.445Z,53.48
2022-11-02T14:01:06.382Z,54.98
2022-11-02T14:05:29.189Z,54.61
2022-11-02T14:09:44.506Z,55.69
2022-11-02T14:13:58.737Z,55.42
2022-11-02T14:18:15.631Z,56.11
2022-11-02T14:22:31.021Z,55.74
2022-11-02T14:26:56.815Z,56.30
2022-11-02T14:31:17.569Z,57.01
2022-11-02T14:35:49.379Z,56.83
2022-11-02T14:40:22.450Z,57.57
2022-11-02T14:44:51.977Z,57.51
2022-11-02T14:49:05.489Z,58.17
2022-11-02T14:53:25.063Z,57.99
2022-11-02T14:57:50.121Z,58.44
2022-11-02T15:02:15.773Z,58.50
2022-11-02T15:06:29.091Z,58.51
2022-11-02T15:10:43.630Z,59.14
2022-11-02T15:14:58.948Z,59.48
2022-11-02T15:19:38.485Z,60.41
2022-11-02T15:23:55.402Z,60.82
2022-11-02T15:28:20.152Z,61.12
2022-11-02T15:32:39.058Z,61.93
2022-11-02T15:36:50.898Z,61.84
2022-11-02T15:41:05.978Z,62.22
2022-11-02T15:45:49.299Z,63.08
2022-11-02T15:50:13.627Z,65.22
2022-11-02T15:54:45.731Z,67.05
2022-11-02T15:59:16.293Z,64.53
2022-11-02T16:03:27.803Z,64.61
2022-11-02T16:08:09.284Z,65.95
2022-11-02T16:12:24.749Z,68.24
2022-11-02T16:16:47.287Z,70.43
2022-11-02T16:21:02.012Z,72.05
2022-11-02T16:25:26.990Z,72.72
2022-11-02T16:29:40.476Z,73.71
2022-11-02T16:33:54.354Z,74.83
2022-11-02T16:38:06.451Z,75.58
2022-11-02T16:42:23.326Z,75.52
2022-11-02T16:46:47.734Z,76.01
2022-11-02T16:51:22.885Z,76.54
2022-11-02T16:55:44.268Z,77.33
2022-11-02T16:59:59.039Z,77.72
2022-11-02T17:04:22.826Z,77.93
2022-11-02T17:08:36.677Z,78.75
2022-11-02T17:12:49.071Z,78.80
2022-11-02T17:17:02.176Z,78.99
2022-11-02T17:21:13.733Z,79.64
2022-11-02T17:25:31.009Z,80.49
2022-11-02T17:29:42.653Z,80.23
2022-11-02T17:33:56.533Z,81.04
2022-11-02T17:38:09.154Z,81.45
2022-11-02T17:42:39.221Z,81.23
2022-11-02T17:46:50.703Z,81.01
2022-11-02T17:51:02.285Z,80.75
2022-11-02T17:55:16.353Z,81.67
2022-11-02T17:59:27.848Z,82.03
2022-11-02T18:03:39.581Z,82.49
2022-11-02T18:07:51.515Z,81.89
2022-11-02T18:12:03.158Z,82.61
2022-11-02T18:16:14.798Z,83.03
2022-11-02T18:20:27.868Z,82.93
2022-11-02T18:24:39.364Z,83.32
2022-11-02T18:28:50.853Z,83.42
2022-11-02T18:33:03.709Z,83.10
2022-11-02T18:37:15.206Z,84.18
2022-11-02T18:41:34.699Z,84.80
2022-11-02T18:45:46.272Z,84.56
2022-11-02T18:49:57.999Z,84.91
2022-11-02T18:54:09.501Z,84.89
2022-11-02T18:58:21.089Z,84.96
2022-11-02T19:02:33.255Z,85.28
2022-11-02T19:07:03.370Z,85.03
2022-11-02T19:11:14.877Z,84.61
2022-11-02T19:15:26.360Z,84.86
2022-11-02T19:19:40.837Z,84.98
2022-11-02T19:23:52.343Z,84.64
2022-11-02T19:28:04.600Z,85.19
2022-11-02T19:32:17.075Z,85.09
2022-11-02T19:36:28.685Z,85.25
2022-11-02T19:40:40.200Z,85.32
2022-11-02T19:44:51.772Z,85.65
2022-11-02T19:49:03.417Z,85.76
2022-11-02T19:53:14.943Z,86.05
2022-11-02T19:57:32.122Z,86.25
2022-11-02T20:01:46.869Z,86.28
2022-11-02T20:06:07.363Z,85.83
2022-11-02T20:10:18.998Z,86.07
2022-11-02T20:14:30.987Z,89.08
2022-11-02T20:18:44.260Z,88.06
2022-11-02T20:22:55.852Z,87.60
2022-11-02T20:27:08.041Z,87.16
2022-11-02T20:31:26.065Z,87.27
2022-11-02T20:35:38.871Z,87.11
2022-11-02T20:39:50.387Z,87.73
2022-11-02T20:44:01.931Z,87.12
2022-11-02T20:48:13.515Z,87.34
2022-11-02T20:52:25.089Z,87.67
2022-11-02T20:56:36.588Z,87.58
2022-11-02T21:00:48.466Z,86.89
2022-11-02T21:04:59.993Z,87.43
2022-11-02T21:09:12.293Z,87.16
2022-11-02T21:13:42.640Z,87.42
2022-11-02T21:17:54.162Z,87.14
2022-11-02T21:22:05.701Z,87.49
2022-11-02T21:26:17.356Z,87.35
2022-11-02T21:30:30.968Z,87.36
2022-11-02T21:34:42.491Z,87.69
2022-11-02T21:38:54.312Z,87.29
2022-11-02T21:43:06.082Z,87.27
2022-11-02T21:47:17.913Z,88.17
2022-11-02T21:51:29.501Z,88.84
2022-11-02T21:55:41.229Z,90.18
2022-11-02T21:59:52.950Z,89.40
2022-11-02T22:04:31.467Z,89.09
2022-11-02T22:08:43.369Z,89.19
2022-11-02T22:13:13.519Z,89.89
2022-11-02T22:21:57.724Z,89.59
2022-11-02T22:26:10.762Z,89.60
